createdAt,value
2022-12-06T00:01:12.447Z,101034.91
2022-12-06T00:03:39.606Z,101035.63
2022-12-06T00:06:08.607Z,101034.19
2022-12-06T00:08:35.752Z,101020.69
2022-12-06T00:11:07.851Z,101018.84
2022-12-06T00:13:34.985Z,101022.59
2022-12-06T00:16:07.700Z,101017.00
2022-12-06T00:18:35.362Z,101016.00
2022-12-06T00:21:17.416Z,101010.88
2022-12-06T00:23:45.944Z,101010.94
2022-12-06T00:26:13.074Z,101005.72
2022-12-06T00:28:39.845Z,101009.28
2022-12-06T00:31:08.603Z,101012.25
2022-12-06T00:33:36.046Z,101004.94
2022-12-06T00:36:10.185Z,100999.06
2022-12-06T00:38:36.328Z,101008.13
2022-12-06T00:41:05.407Z,100998.31
2022-12-06T00:43:32.266Z,100998.81
2022-12-06T00:45:59.475Z,100994.16
2022-12-06T00:48:26.212Z,100999.56
2022-12-06T00:50:52.799Z,100985.59
2022-12-06T00:53:19.550Z,100988.41
2022-12-06T00:55:46.709Z,100994.66
2022-12-06T00:58:13.626Z,100991.09
2022-12-06T01:00:40.306Z,100995.63
2022-12-06T01:03:06.806Z,100986.13
2022-12-06T01:05:34.018Z,100992.94
2022-12-06T01:08:00.146Z,100997.00
2022-12-06T01:10:26.875Z,100994.91
2022-12-06T01:12:52.944Z,101000.16
2022-12-06T01:15:19.270Z,100997.44
2022-12-06T01:17:45.353Z,100990.97
2022-12-06T01:20:11.726Z,100987.31
2022-12-06T01:22:37.819Z,100995.63
2022-12-06T01:25:04.494Z,101002.63
2022-12-06T01:27:30.708Z,101000.53
2022-12-06T01:29:57.149Z,101001.97
2022-12-06T01:32:23.718Z,101005.16
2022-12-06T01:34:52.050Z,101002.22
2022-12-06T01:37:18.623Z,101000.50
2022-12-06T01:39:45.059Z,101001.72
2022-12-06T01:42:12.079Z,100994.38
2022-12-06T01:44:46.387Z,100990.34
2022-12-06T01:47:40.857Z,100994.38
2022-12-06T01:50:33.654Z,100993.38
2022-12-06T01:53:06.848Z,100995.00
2022-12-06T01:55:36.775Z,100995.59
2022-12-06T01:58:17.221Z,100994.63
2022-12-06T02:00:43.739Z,100989.34
2022-12-06T02:03:19.441Z,100982.38
2022-12-06T02:05:45.856Z,100975.50
2022-12-06T02:08:13.879Z,100964.97
2022-12-06T02:10:40.278Z,100964.59
2022-12-06T02:13:07.391Z,100959.81
2022-12-06T02:15:44.247Z,100948.94
2022-12-06T02:18:22.989Z,100945.22
2022-12-06T02:21:03.200Z,100919.97
2022-12-06T02:23:42.861Z,100925.28
2022-12-06T02:26:16.151Z,100925.13
2022-12-06T02:29:04.290Z,100918.63
2022-12-06T02:31:39.380Z,100917.63
2022-12-06T02:34:22.281Z,100921.78
2022-12-06T02:37:00.715Z,100914.34
2022-12-06T02:39:38.350Z,100918.13
2022-12-06T02:42:14.279Z,100905.13
2022-12-06T02:44:46.106Z,100908.94
2022-12-06T02:47:15.514Z,100898.78
2022-12-06T02:49:48.800Z,100890.97
2022-12-06T02:52:19.134Z,100883.94
2022-12-06T02:54:47.672Z,100886.56
2022-12-06T02:57:14.015Z,100890.97
2022-12-06T02:59:50.142Z,100893.69
2022-12-06T03:02:16.881Z,100899.34
2022-12-06T03:04:52.048Z,100899.56
2022-12-06T03:07:27.960Z,100908.03
2022-12-06T03:10:16.771Z,100901.81
2022-12-06T03:13:17.891Z,100902.50
2022-12-06T03:15:55.853Z,100904.25
2022-12-06T03:18:31.465Z,100905.69
2022-12-06T03:21:05.547Z,100903.53
2022-12-06T03:23:40.384Z,100894.38
2022-12-06T03:26:10.305Z,100893.41
2022-12-06T03:28:38.398Z,100888.66
2022-12-06T03:31:12.386Z,100894.88
2022-12-06T03:33:48.009Z,100882.69
2022-12-06T03:36:16.772Z,100882.84
2022-12-06T03:38:52.345Z,100877.22
2022-12-06T03:41:22.085Z,100866.91
2022-12-06T03:43:48.607Z,100870.34
2022-12-06T03:46:19.513Z,100874.06
2022-12-06T03:48:50.853Z,100874.28
2022-12-06T03:51:25.397Z,100873.94
2022-12-06T03:53:55.878Z,100870.75
2022-12-06T03:56:22.889Z,100867.34
2022-12-06T03:58:49.419Z,100865.72
2022-12-06T04:01:16.013Z,100862.00
2022-12-06T04:03:42.623Z,100867.16
2022-12-06T04:06:09.727Z,100861.00
2022-12-06T04:08:36.661Z,100860.06
2022-12-06T04:11:03.966Z,100864.47
2022-12-06T04:13:30.810Z,100867.06
2022-12-06T04:15:59.697Z,100873.59
2022-12-06T04:18:27.398Z,100872.13
2022-12-06T04:21:20.612Z,100860.56
2022-12-06T04:23:50.010Z,100859.38
2022-12-06T04:26:19.654Z,100857.16
2022-12-06T04:29:05.493Z,100848.75
2022-12-06T04:31:50.969Z,100863.50
2022-12-06T04:34:36.048Z,100863.88
2022-12-06T04:37:21.582Z,100864.59
2022-12-06T04:39:48.207Z,100864.63
2022-12-06T04:42:33.224Z,100854.81
2022-12-06T04:44:59.829Z,100844.44
2022-12-06T04:47:26.468Z,100844.31
2022-12-06T04:49:53.019Z,100844.44
2022-12-06T04:52:19.460Z,100845.41
2022-12-06T04:54:46.791Z,100849.56
2022-12-06T04:57:14.848Z,100852.22
2022-12-06T04:59:43.092Z,100860.84
2022-12-06T05:02:12.446Z,100848.06
2022-12-06T05:04:39.352Z,100842.81
2022-12-06T05:07:05.593Z,100843.28
2022-12-06T05:09:32.350Z,100849.31
2022-12-06T05:11:58.801Z,100851.28
2022-12-06T05:14:25.509Z,100845.00
2022-12-06T05:16:51.639Z,100840.06
2022-12-06T05:19:18.297Z,100840.47
2022-12-06T05:21:44.451Z,100847.56
2022-12-06T05:24:10.911Z,100844.63
2022-12-06T05:26:37.026Z,100843.81
2022-12-06T05:29:03.477Z,100847.22
2022-12-06T05:31:29.761Z,100843.28
2022-12-06T05:33:56.159Z,100839.72
2022-12-06T05:36:24.786Z,100836.34
2022-12-06T05:38:52.007Z,100850.69
2022-12-06T05:41:20.269Z,100838.84
2022-12-06T05:43:47.125Z,100845.94
2022-12-06T05:46:13.447Z,100839.94
2022-12-06T05:48:39.875Z,100839.56
2022-12-06T05:51:06.053Z,100834.44
2022-12-06T05:53:32.514Z,100832.22
2022-12-06T05:56:07.917Z,100821.47
2022-12-06T05:58:35.169Z,100826.09
2022-12-06T06:01:01.729Z,100829.00
2022-12-06T06:03:28.638Z,100830.34
2022-12-06T06:05:57.744Z,100824.66
2022-12-06T06:08:24.559Z,100818.97
2022-12-06T06:10:51.679Z,100819.63
2022-12-06T06:13:18.087Z,100829.41
2022-12-06T06:15:44.394Z,100833.97
2022-12-06T06:18:10.784Z,100830.41
2022-12-06T06:20:36.834Z,100834.22
2022-12-06T06:23:03.380Z,100839.94
2022-12-06T06:25:29.437Z,100826.66
2022-12-06T06:27:55.860Z,100823.16
2022-12-06T06:30:22.036Z,100820.38
2022-12-06T06:32:48.626Z,100814.44
2022-12-06T06:35:14.805Z,100808.78
2022-12-06T06:37:41.299Z,100792.06
2022-12-06T06:40:07.958Z,100797.47
2022-12-06T06:42:34.474Z,100795.63
2022-12-06T06:45:00.782Z,100812.19
2022-12-06T06:47:27.455Z,100810.47
2022-12-06T06:49:53.787Z,100804.09
2022-12-06T06:52:20.230Z,100805.81
2022-12-06T06:54:46.431Z,100801.66
2022-12-06T06:57:17.592Z,100795.31
2022-12-06T06:59:45.264Z,100798.28
2022-12-06T07:02:13.155Z,100801.44
2022-12-06T07:04:43.865Z,100798.91
2022-12-06T07:07:12.562Z,100796.09
2022-12-06T07:09:41.213Z,100804.78
2022-12-06T07:12:07.700Z,100806.28
2022-12-06T07:14:34.027Z,100814.34
2022-12-06T07:17:00.680Z,100811.78
2022-12-06T07:19:26.845Z,100817.31
2022-12-06T07:21:53.204Z,100820.84
2022-12-06T07:24:19.261Z,100816.69
2022-12-06T07:26:45.774Z,100817.53
2022-12-06T07:29:12.005Z,100825.75
2022-12-06T07:31:40.464Z,100825.88
2022-12-06T07:34:06.612Z,100822.91
2022-12-06T07:36:33.312Z,100820.22
2022-12-06T07:39:00.091Z,100823.00
2022-12-06T07:41:47.669Z,100817.00
2022-12-06T07:44:56.932Z,100824.47
2022-12-06T07:47:39.668Z,100825.25
2022-12-06T07:50:12.883Z,100817.78
2022-12-06T07:52:43.249Z,100818.03
2022-12-06T07:55:10.687Z,100811.28
2022-12-06T07:57:43.166Z,100810.03
2022-12-06T08:00:13.791Z,100809.16
2022-12-06T08:02:40.681Z,100810.34
2022-12-06T08:05:07.935Z,100812.81
2022-12-06T08:07:34.611Z,100811.84
2022-12-06T08:10:01.304Z,100809.41
2022-12-06T08:12:31.446Z,100815.66
2022-12-06T08:14:59.814Z,100805.97
2022-12-06T08:17:27.341Z,100803.28
2022-12-06T08:19:53.709Z,100801.81
2022-12-06T08:22:20.452Z,100807.84
2022-12-06T08:24:46.537Z,100808.97
2022-12-06T08:27:13.017Z,100807.25
2022-12-06T08:29:39.192Z,100807.88
2022-12-06T08:32:05.871Z,100806.41
2022-12-06T08:34:33.304Z,100800.41
2022-12-06T08:37:03.369Z,100806.50
2022-12-06T08:39:29.983Z,100800.72
2022-12-06T08:41:59.208Z,100799.72
2022-12-06T08:44:27.651Z,100800.19
2022-12-06T08:46:55.550Z,100799.22
2022-12-06T08:49:22.867Z,100789.81
2022-12-06T08:51:49.430Z,100791.25
2022-12-06T08:54:18.477Z,100799.59
2022-12-06T08:56:45.144Z,100795.31
2022-12-06T08:59:11.348Z,100796.06
2022-12-06T09:01:38.756Z,100793.47
2022-12-06T09:04:07.467Z,100804.53
2022-12-06T09:06:35.733Z,100804.41
2022-12-06T09:09:01.851Z,100807.94
2022-12-06T09:11:28.353Z,100807.69
2022-12-06T09:13:54.711Z,100798.41
2022-12-06T09:16:23.127Z,100798.91
2022-12-06T09:18:51.072Z,100796.44
2022-12-06T09:21:20.091Z,100791.78
2022-12-06T09:23:46.471Z,100784.84
2022-12-06T09:26:13.904Z,100795.63
2022-12-06T09:28:41.561Z,100784.00
2022-12-06T09:31:09.436Z,100789.06
2022-12-06T09:33:37.791Z,100781.53
2022-12-06T09:36:12.413Z,100776.03
2022-12-06T09:38:41.327Z,100782.09
2022-12-06T09:41:46.254Z,100778.13
2022-12-06T09:44:33.729Z,100772.56
2022-12-06T09:47:28.945Z,100769.31
2022-12-06T09:50:20.021Z,100767.91
2022-12-06T09:52:55.396Z,100756.44
2022-12-06T09:55:38.003Z,100755.84
2022-12-06T09:58:28.933Z,100757.31
2022-12-06T10:01:04.841Z,100755.72
2022-12-06T10:03:52.892Z,100750.66
2022-12-06T10:06:22.553Z,100746.53
2022-12-06T10:09:27.666Z,100749.69
2022-12-06T10:12:32.466Z,100737.41
2022-12-06T10:15:44.439Z,100741.84
2022-12-06T10:18:23.054Z,100740.34
2022-12-06T10:20:52.285Z,100739.69
2022-12-06T10:23:43.186Z,100736.34
2022-12-06T10:26:16.373Z,100736.13
2022-12-06T10:28:51.156Z,100734.91
2022-12-06T10:31:36.935Z,100735.06
2022-12-06T10:34:29.416Z,100731.41
2022-12-06T10:37:14.399Z,100725.41
2022-12-06T10:40:05.862Z,100721.72
2022-12-06T10:42:39.794Z,100720.03
2022-12-06T10:45:40.381Z,100710.84
2022-12-06T10:48:16.170Z,100704.56
2022-12-06T10:50:45.007Z,100707.09
2022-12-06T10:53:18.299Z,100719.44
2022-12-06T10:56:09.009Z,100723.13
2022-12-06T10:58:58.237Z,100724.56
2022-12-06T11:01:28.631Z,100709.59
2022-12-06T11:04:01.633Z,100712.34
2022-12-06T11:06:38.244Z,100711.97
2022-12-06T11:09:29.918Z,100713.81
2022-12-06T11:11:56.362Z,100702.03
2022-12-06T11:14:33.304Z,100708.16
2022-12-06T11:17:21.850Z,100692.75
2022-12-06T11:19:51.466Z,100695.41
2022-12-06T11:22:40.419Z,100714.66
2022-12-06T11:25:32.289Z,100707.34
2022-12-06T11:28:20.898Z,100712.94
2022-12-06T11:30:53.622Z,100709.41
2022-12-06T11:33:29.152Z,100708.88
2022-12-06T11:35:58.463Z,100704.00
2022-12-06T11:38:24.625Z,100704.47
2022-12-06T11:40:51.866Z,100707.72
2022-12-06T11:43:24.807Z,100702.09
2022-12-06T11:45:52.033Z,100687.47
2022-12-06T11:48:22.093Z,100691.72
2022-12-06T11:50:50.106Z,100684.25
2022-12-06T11:53:19.776Z,100673.34
2022-12-06T11:55:50.309Z,100669.91
2022-12-06T11:58:26.319Z,100664.47
2022-12-06T12:01:01.911Z,100659.34
2022-12-06T12:03:31.800Z,100664.53
2022-12-06T12:06:19.324Z,100664.53
2022-12-06T12:08:56.996Z,100659.53
2022-12-06T12:11:27.011Z,100656.25
2022-12-06T12:13:58.223Z,100658.34
2022-12-06T12:16:32.949Z,100656.13
2022-12-06T12:19:34.257Z,100657.19
2022-12-06T12:22:15.452Z,100654.75
2022-12-06T12:25:17.362Z,100657.56
2022-12-06T12:27:34.387Z,100651.13
2022-12-06T12:30:19.227Z,100635.81
2022-12-06T12:32:47.255Z,100632.25
2022-12-06T12:35:19.951Z,100634.56
2022-12-06T12:37:53.758Z,100632.50
2022-12-06T12:40:28.464Z,100634.81
2022-12-06T12:43:10.346Z,100623.44
2022-12-06T12:45:40.023Z,100616.59
2022-12-06T12:48:32.929Z,100617.75
2022-12-06T12:51:03.365Z,100608.22
2022-12-06T12:53:38.995Z,100603.13
2022-12-06T12:56:12.695Z,100612.44
2022-12-06T12:58:39.901Z,100612.25
2022-12-06T13:01:24.398Z,100608.72
2022-12-06T13:03:56.718Z,100610.28
2022-12-06T13:06:44.828Z,100616.66
2022-12-06T13:09:19.342Z,100612.97
2022-12-06T13:11:52.286Z,100619.34
2022-12-06T13:14:21.900Z,100620.84
2022-12-06T13:16:51.741Z,100606.06
2022-12-06T13:19:21.663Z,100618.97
2022-12-06T13:21:49.948Z,100625.47
2022-12-06T13:24:30.308Z,100623.06
2022-12-06T13:27:04.565Z,100621.22
2022-12-06T13:29:39.886Z,100634.69
2022-12-06T13:32:13.991Z,100634.94
2022-12-06T13:34:48.636Z,100633.47
2022-12-06T13:37:43.313Z,100647.72
2022-12-06T13:40:34.784Z,100634.97
2022-12-06T13:43:25.533Z,100642.25
2022-12-06T13:45:54.855Z,100636.97
2022-12-06T13:48:24.214Z,100640.31
2022-12-06T13:50:56.000Z,100637.38
2022-12-06T13:53:25.608Z,100628.78
2022-12-06T13:55:59.151Z,100627.38
2022-12-06T13:58:26.043Z,100617.09
2022-12-06T14:00:54.616Z,100620.78
2022-12-06T14:03:22.388Z,100622.88
2022-12-06T14:06:15.303Z,100627.25
2022-12-06T14:08:54.146Z,100625.91
2022-12-06T14:11:23.501Z,100627.09
2022-12-06T14:13:59.436Z,100607.88
2022-12-06T14:16:43.090Z,100600.06
2022-12-06T14:19:23.521Z,100607.03
2022-12-06T14:21:58.694Z,100617.06
2022-12-06T14:24:30.914Z,100615.09
2022-12-06T14:27:10.935Z,100601.31
2022-12-06T14:29:38.337Z,100605.00
2022-12-06T14:32:04.903Z,100600.72
2022-12-06T14:34:33.615Z,100606.47
2022-12-06T14:37:02.415Z,100604.16
2022-12-06T14:39:31.136Z,100606.47
2022-12-06T14:42:22.631Z,100610.50
2022-12-06T14:44:56.172Z,100602.47
2022-12-06T14:47:28.241Z,100605.13
2022-12-06T14:50:18.267Z,100600.72
2022-12-06T14:52:55.912Z,100605.41
2022-12-06T14:55:24.241Z,100607.56
2022-12-06T14:57:59.863Z,100603.91
2022-12-06T15:00:34.602Z,100607.06
2022-12-06T15:03:22.148Z,100604.16
2022-12-06T15:06:10.652Z,100597.44
2022-12-06T15:08:42.572Z,100598.31
2022-12-06T15:11:08.909Z,100592.81
2022-12-06T15:13:35.082Z,100581.69
2022-12-06T15:16:13.936Z,100593.41
2022-12-06T15:18:58.399Z,100592.03
2022-12-06T15:21:26.556Z,100591.31
2022-12-06T15:23:55.224Z,100595.84
2022-12-06T15:26:23.894Z,100599.38
2022-12-06T15:28:51.151Z,100595.84
2022-12-06T15:31:26.417Z,100590.31
2022-12-06T15:33:54.046Z,100585.72
2022-12-06T15:36:23.971Z,100582.38
2022-12-06T15:38:50.628Z,100575.94
2022-12-06T15:41:21.261Z,100584.13
2022-12-06T15:43:48.219Z,100569.91
2022-12-06T15:46:25.411Z,100580.53
2022-12-06T15:48:53.307Z,100578.38
2022-12-06T15:51:28.745Z,100579.84
2022-12-06T15:53:58.077Z,100575.84
2022-12-06T15:56:28.316Z,100578.66
2022-12-06T15:58:54.895Z,100575.63
2022-12-06T16:01:23.498Z,100565.38
2022-12-06T16:03:52.442Z,100564.91
2022-12-06T16:06:20.936Z,100555.72
2022-12-06T16:08:47.621Z,100564.41
2022-12-06T16:11:17.419Z,100558.69
2022-12-06T16:13:44.009Z,100568.44
2022-12-06T16:16:11.420Z,100558.97
2022-12-06T16:18:37.874Z,100574.66
2022-12-06T16:21:05.074Z,100562.31
2022-12-06T16:24:12.378Z,100561.94
2022-12-06T16:26:41.083Z,100566.38
2022-12-06T16:29:11.786Z,100572.22
2022-12-06T16:31:40.314Z,100560.38
2022-12-06T16:34:08.119Z,100562.69
2022-12-06T16:36:57.734Z,100557.69
2022-12-06T16:39:26.762Z,100563.44
2022-12-06T16:41:53.548Z,100557.91
2022-12-06T16:44:19.869Z,100552.69
2022-12-06T16:46:46.393Z,100559.53
2022-12-06T16:52:05.762Z,100554.41
2022-12-06T16:54:32.677Z,100550.38
2022-12-06T16:56:59.175Z,100558.69
2022-12-06T16:59:25.341Z,100559.31
2022-12-06T17:01:54.539Z,100563.81
2022-12-06T17:04:21.083Z,100567.22
2022-12-06T17:06:47.851Z,100564.78
2022-12-06T17:09:14.499Z,100556.94
2022-12-06T17:12:00.180Z,100566.84
2022-12-06T17:14:26.667Z,100565.31
2022-12-06T17:16:54.310Z,100569.78
2022-12-06T17:19:23.314Z,100561.00
2022-12-06T17:21:51.833Z,100555.97
2022-12-06T17:24:19.718Z,100564.16
2022-12-06T17:26:47.036Z,100560.38
2022-12-06T17:29:13.712Z,100556.47
2022-12-06T17:31:41.922Z,100560.72
2022-12-06T17:34:12.109Z,100571.84
2022-12-06T17:36:39.519Z,100571.00
2022-12-06T17:39:10.188Z,100569.00
2022-12-06T17:41:56.069Z,100562.78
2022-12-06T17:44:22.739Z,100573.16
2022-12-06T17:46:49.845Z,100570.44
2022-12-06T17:49:20.098Z,100562.50
2022-12-06T17:51:47.523Z,100561.09
2022-12-06T17:54:15.126Z,100562.19
2022-12-06T17:56:52.550Z,100554.25
2022-12-06T17:59:22.374Z,100559.94
2022-12-06T18:04:36.948Z,100569.09
2022-12-06T18:07:03.481Z,100562.38
2022-12-06T18:09:30.049Z,100559.25
2022-12-06T18:11:56.548Z,100558.25
2022-12-06T18:14:23.056Z,100560.69
2022-12-06T18:16:49.788Z,100561.09
2022-12-06T18:19:19.056Z,100558.84
2022-12-06T18:21:46.765Z,100543.25
2022-12-06T18:24:26.762Z,100543.25
2022-12-06T18:26:55.992Z,100549.00
2022-12-06T18:29:23.719Z,100544.63
2022-12-06T18:31:51.439Z,100547.22
2022-12-06T18:34:18.389Z,100552.94
2022-12-06T18:36:46.097Z,100541.22
2022-12-06T18:39:15.979Z,100551.84
2022-12-06T18:41:43.900Z,100547.31
2022-12-06T18:44:11.193Z,100547.56
2022-12-06T18:46:38.228Z,100545.25
2022-12-06T18:49:04.477Z,100547.06
2022-12-06T18:51:33.565Z,100547.47
2022-12-06T18:54:01.731Z,100549.78
2022-12-06T18:56:31.381Z,100547.22
2022-12-06T18:58:59.599Z,100541.69
2022-12-06T19:01:29.864Z,100538.41
2022-12-06T19:04:02.282Z,100549.50
2022-12-06T19:06:32.412Z,100539.88
2022-12-06T19:09:08.824Z,100543.78
2022-12-06T19:11:37.663Z,100544.78
2022-12-06T19:14:04.548Z,100542.69
2022-12-06T19:16:46.529Z,100542.94
2022-12-06T19:19:17.413Z,100544.16
2022-12-06T19:21:46.111Z,100545.88
2022-12-06T19:24:15.085Z,100537.09
2022-12-06T19:26:42.075Z,100541.47
2022-12-06T19:29:08.777Z,100526.94
2022-12-06T19:31:35.754Z,100536.84
2022-12-06T19:34:02.311Z,100540.00
2022-12-06T19:36:30.905Z,100538.91
2022-12-06T19:39:00.124Z,100526.81
2022-12-06T19:41:27.149Z,100537.31
2022-12-06T19:44:12.315Z,100538.06
2022-12-06T19:46:41.915Z,100538.53
2022-12-06T19:49:10.849Z,100516.44
2022-12-06T19:51:39.679Z,100531.47
2022-12-06T19:54:06.992Z,100526.81
2022-12-06T19:56:35.466Z,100527.78
2022-12-06T19:59:10.824Z,100525.59
2022-12-06T20:01:44.858Z,100518.28
2022-12-06T20:04:16.903Z,100517.91
2022-12-06T20:06:44.084Z,100507.16
2022-12-06T20:09:11.221Z,100515.34
2022-12-06T20:11:58.831Z,100513.84
2022-12-06T20:14:25.151Z,100516.66
2022-12-06T20:16:52.091Z,100511.16
2022-12-06T20:19:19.122Z,100502.63
2022-12-06T20:21:46.587Z,100503.13
2022-12-06T20:24:16.454Z,100496.88
2022-12-06T20:26:43.330Z,100493.06
2022-12-06T20:29:11.431Z,100487.22
2022-12-06T20:31:38.683Z,100493.47
2022-12-06T20:34:11.616Z,100492.34
2022-12-06T20:36:42.041Z,100490.88
2022-12-06T20:39:10.394Z,100484.78
2022-12-06T20:41:36.822Z,100477.44
2022-12-06T20:44:03.118Z,100484.06
2022-12-06T20:46:31.200Z,100480.16
2022-12-06T20:49:03.285Z,100484.53
2022-12-06T20:51:31.916Z,100489.59
2022-12-06T20:54:01.794Z,100479.66
2022-12-06T20:56:32.044Z,100476.75
2022-12-06T20:58:59.970Z,100479.66
2022-12-06T21:01:34.488Z,100484.78
2022-12-06T21:04:00.939Z,100468.31
2022-12-06T21:06:27.549Z,100473.44
2022-12-06T21:08:53.913Z,100465.50
2022-12-06T21:11:24.013Z,100470.16
2022-12-06T21:13:52.909Z,100473.91
2022-12-06T21:16:22.520Z,100457.56
2022-12-06T21:18:54.340Z,100470.41
2022-12-06T21:21:29.983Z,100466.00
2022-12-06T21:24:00.628Z,100460.00
2022-12-06T21:26:28.638Z,100465.63
2022-12-06T21:28:55.375Z,100464.78
2022-12-06T21:31:30.502Z,100466.72
2022-12-06T21:33:57.512Z,100471.03
2022-12-06T21:36:25.387Z,100476.03
2022-12-06T21:38:52.494Z,100466.00
2022-12-06T21:41:20.230Z,100471.63
2022-12-06T21:43:47.081Z,100476.50
2022-12-06T21:46:18.889Z,100465.63
2022-12-06T21:48:50.443Z,100463.94
2022-12-06T21:51:17.544Z,100467.47
2022-12-06T21:53:43.887Z,100464.06
2022-12-06T21:56:14.005Z,100466.16
2022-12-06T21:58:40.192Z,100471.41
2022-12-06T22:01:13.329Z,100464.06
2022-12-06T22:03:41.328Z,100454.56
2022-12-06T22:06:11.490Z,100453.81
2022-12-06T22:08:39.818Z,100452.00
2022-12-06T22:11:12.700Z,100458.97
2022-12-06T22:13:39.086Z,100459.19
2022-12-06T22:16:07.780Z,100456.03
2022-12-06T22:18:38.741Z,100440.75
2022-12-06T22:21:18.709Z,100442.59
2022-12-06T22:23:45.448Z,100442.81
2022-12-06T22:26:15.201Z,100442.97
2022-12-06T22:28:41.562Z,100440.88
2022-12-06T22:31:08.302Z,100435.13
2022-12-06T22:33:34.454Z,100435.59
2022-12-06T22:36:00.878Z,100435.00
2022-12-06T22:38:27.391Z,100434.03
2022-12-06T22:40:58.879Z,100430.72
2022-12-06T22:43:25.377Z,100427.06
2022-12-06T22:45:52.342Z,100437.44
2022-12-06T22:48:18.911Z,100433.31
2022-12-06T22:50:45.555Z,100425.34
2022-12-06T22:53:12.263Z,100424.50
2022-12-06T22:55:38.822Z,100426.81
2022-12-06T22:58:05.213Z,100424.13
2022-12-06T23:00:31.784Z,100418.28
2022-12-06T23:02:58.243Z,100423.78
2022-12-06T23:05:24.831Z,100420.72
2022-12-06T23:07:52.494Z,100415.38
2022-12-06T23:10:19.061Z,100413.16
2022-12-06T23:12:45.212Z,100412.16
2022-12-06T23:15:11.551Z,100418.16
2022-12-06T23:17:38.498Z,100409.59
2022-12-06T23:20:06.486Z,100404.44
2022-12-06T23:22:32.709Z,100406.00
2022-12-06T23:24:59.432Z,100407.88
2022-12-06T23:27:25.579Z,100416.06
2022-12-06T23:29:51.967Z,100408.13
2022-12-06T23:32:18.721Z,100408.88
2022-12-06T23:34:45.212Z,100403.13
2022-12-06T23:37:11.392Z,100404.13
2022-12-06T23:39:37.923Z,100408.41
2022-12-06T23:42:04.314Z,100408.25
2022-12-06T23:44:30.809Z,100403.75
2022-12-06T23:46:57.018Z,100395.94
2022-12-06T23:49:23.642Z,100399.13
2022-12-06T23:51:50.764Z,100406.59
2022-12-06T23:54:18.079Z,100415.50
2022-12-06T23:56:44.908Z,100408.88
2022-12-06T23:59:13.710Z,100397.63
